createdAt,value
2018-12-31T00:00:55.048Z,3.03
2018-12-31T00:03:22.710Z,3.00
2018-12-31T00:05:50.571Z,3.50
2018-12-31T00:08:18.313Z,4.33
2018-12-31T00:10:47.292Z,3.30
2018-12-31T00:13:16.942Z,3.53
2018-12-31T00:15:44.527Z,3.47
2018-12-31T00:18:12.135Z,3.27
2018-12-31T00:20:40.019Z,3.60
2018-12-31T00:23:09.310Z,3.43
2018-12-31T00:25:42.505Z,3.70
2018-12-31T00:28:10.248Z,3.63
2018-12-31T00:30:51.047Z,3.53
2018-12-31T00:33:10.225Z,3.90
2018-12-31T00:35:37.844Z,3.87
2018-12-31T00:38:05.450Z,3.70
2018-12-31T00:40:33.279Z,3.73
2018-12-31T00:43:01.145Z,3.80
2018-12-31T00:45:28.776Z,4.10
2018-12-31T00:47:56.348Z,3.73
2018-12-31T00:50:24.105Z,4.20
2018-12-31T00:52:51.720Z,4.10
2018-12-31T00:55:20.648Z,4.27
2018-12-31T00:57:48.455Z,4.90
2018-12-31T01:00:17.981Z,4.80
2018-12-31T01:02:45.447Z,5.10
2018-12-31T01:05:13.104Z,5.57
2018-12-31T01:07:42.724Z,5.63
2018-12-31T01:10:10.374Z,5.97
2018-12-31T01:12:38.150Z,5.90
2018-12-31T01:15:06.894Z,5.90
2018-12-31T01:17:34.597Z,5.73
2018-12-31T01:20:02.397Z,5.50
2018-12-31T01:22:30.029Z,5.93
2018-12-31T01:24:57.623Z,6.20
2018-12-31T01:27:25.362Z,5.83
2018-12-31T01:29:53.141Z,6.10
2018-12-31T01:32:20.761Z,6.13
2018-12-31T01:34:48.794Z,6.40
2018-12-31T01:37:16.504Z,5.73
2018-12-31T01:39:44.119Z,5.93
2018-12-31T01:42:11.886Z,5.60
2018-12-31T01:44:39.604Z,6.23
2018-12-31T01:47:07.218Z,5.67
2018-12-31T01:49:34.959Z,6.07
2018-12-31T01:52:02.763Z,6.40
2018-12-31T01:54:30.686Z,6.30
2018-12-31T01:56:58.408Z,6.40
2018-12-31T01:59:26.156Z,5.97
2018-12-31T02:01:53.730Z,6.00
2018-12-31T02:04:21.728Z,6.17
2018-12-31T02:06:49.366Z,7.27
2018-12-31T02:09:16.979Z,7.50
2018-12-31T02:11:49.178Z,7.10
2018-12-31T02:14:14.342Z,8.63
2018-12-31T02:16:42.107Z,8.10
2018-12-31T02:19:09.959Z,8.53
2018-12-31T02:21:37.584Z,9.10
2018-12-31T02:24:05.278Z,9.73
2018-12-31T02:26:33.196Z,9.93
2018-12-31T02:29:04.024Z,9.70
2018-12-31T02:31:31.718Z,14.13
2018-12-31T02:33:59.699Z,9.80
2018-12-31T02:36:28.578Z,10.37
2018-12-31T02:38:56.404Z,9.77
2018-12-31T02:41:25.139Z,9.13
2018-12-31T02:43:52.985Z,8.70
2018-12-31T02:46:20.641Z,9.00
2018-12-31T02:48:51.290Z,8.73
2018-12-31T02:51:18.913Z,8.90
2018-12-31T02:53:47.666Z,8.27
2018-12-31T02:56:15.856Z,9.77
2018-12-31T02:58:43.657Z,9.27
2018-12-31T03:01:11.344Z,8.30
2018-12-31T03:03:39.037Z,8.50
2018-12-31T03:13:00.577Z,8.63
2018-12-31T03:15:29.635Z,8.77
2018-12-31T03:17:58.443Z,9.37
2018-12-31T03:20:26.261Z,10.70
2018-12-31T03:22:56.152Z,9.90
2018-12-31T03:25:24.006Z,10.53
2018-12-31T03:27:52.658Z,11.17
2018-12-31T03:30:22.220Z,9.97
2018-12-31T03:32:49.829Z,9.60
2018-12-31T03:35:18.685Z,10.60
2018-12-31T03:37:46.601Z,11.13
2018-12-31T03:40:14.265Z,10.17
2018-12-31T03:42:41.950Z,10.63
2018-12-31T03:45:11.165Z,9.67
2018-12-31T03:47:38.777Z,10.47
2018-12-31T03:50:09.190Z,10.97
2018-12-31T03:52:38.991Z,9.60
2018-12-31T03:55:06.629Z,10.43
2018-12-31T03:57:34.352Z,9.37
2018-12-31T04:00:02.139Z,9.70
2018-12-31T04:02:31.001Z,9.47
2018-12-31T04:04:58.626Z,9.73
2018-12-31T04:07:26.294Z,8.83
2018-12-31T04:09:54.006Z,8.57
2018-12-31T04:12:21.819Z,8.83
2018-12-31T04:14:52.186Z,8.80
2018-12-31T04:17:19.907Z,9.53
2018-12-31T04:19:50.602Z,9.17
2018-12-31T04:22:19.479Z,8.70
2018-12-31T04:24:47.117Z,8.90
2018-12-31T04:27:14.722Z,8.87
2018-12-31T04:29:42.450Z,8.40
2018-12-31T04:32:12.869Z,9.13
2018-12-31T04:34:40.465Z,9.23
2018-12-31T04:37:08.374Z,8.47
2018-12-31T04:39:36.017Z,9.20
2018-12-31T04:42:03.700Z,8.67
2018-12-31T04:44:31.313Z,8.70
2018-12-31T04:46:58.928Z,8.80
2018-12-31T04:49:26.526Z,8.27
2018-12-31T04:51:55.636Z,8.53
2018-12-31T04:54:23.275Z,7.93
2018-12-31T04:56:50.909Z,8.20
2018-12-31T04:59:18.823Z,8.00
2018-12-31T05:01:46.435Z,7.77
2018-12-31T05:04:15.329Z,8.70
2018-12-31T05:06:44.463Z,7.97
2018-12-31T05:09:12.193Z,7.07
2018-12-31T05:11:39.825Z,7.03
2018-12-31T05:14:07.726Z,7.30
2018-12-31T05:16:35.408Z,7.60
2018-12-31T05:19:03.028Z,7.70
2018-12-31T05:21:30.958Z,7.87
2018-12-31T05:23:58.615Z,7.60
2018-12-31T05:26:26.284Z,7.07
2018-12-31T05:28:54.125Z,7.80
2018-12-31T05:31:23.067Z,7.00
2018-12-31T05:33:50.685Z,5.97
2018-12-31T05:36:18.389Z,5.80
2018-12-31T05:38:45.987Z,6.40
2018-12-31T05:41:13.579Z,6.43
2018-12-31T05:43:43.317Z,6.53
2018-12-31T05:46:12.275Z,6.67
2018-12-31T05:48:40.005Z,5.90
2018-12-31T05:51:07.669Z,5.47
2018-12-31T05:53:35.371Z,5.87
2018-12-31T05:56:02.927Z,5.30
2018-12-31T05:58:30.746Z,5.97
2018-12-31T06:01:00.093Z,5.97
2018-12-31T06:03:27.964Z,5.73
2018-12-31T06:05:56.072Z,5.77
2018-12-31T06:08:25.024Z,5.57
2018-12-31T06:10:52.743Z,5.80
2018-12-31T06:13:20.527Z,6.70
2018-12-31T06:15:48.150Z,6.57
2018-12-31T06:18:15.935Z,6.83
2018-12-31T06:20:43.785Z,8.00
2018-12-31T06:23:11.424Z,8.20
2018-12-31T06:25:39.081Z,8.40
2018-12-31T06:28:07.949Z,8.70
2018-12-31T06:30:35.579Z,8.53
2018-12-31T06:33:05.171Z,7.83
2018-12-31T06:35:32.880Z,7.53
2018-12-31T06:38:00.493Z,8.73
2018-12-31T06:40:30.889Z,7.77
2018-12-31T06:42:58.677Z,8.23
2018-12-31T06:45:26.243Z,8.47
2018-12-31T06:47:53.824Z,8.23
2018-12-31T06:50:21.696Z,7.40
2018-12-31T06:52:49.368Z,7.87
2018-12-31T06:55:18.829Z,7.53
2018-12-31T06:57:48.407Z,8.23
2018-12-31T07:00:20.841Z,8.63
2018-12-31T07:02:48.417Z,8.00
2018-12-31T07:05:16.199Z,10.93
2018-12-31T07:07:43.980Z,9.37
2018-12-31T07:10:11.578Z,8.53
2018-12-31T07:12:39.511Z,9.07
2018-12-31T07:15:07.062Z,8.53
2018-12-31T07:17:34.643Z,8.03
2018-12-31T07:20:02.617Z,8.70
2018-12-31T07:22:30.253Z,8.00
2018-12-31T07:24:57.883Z,8.37
2018-12-31T07:27:25.633Z,8.97
2018-12-31T07:29:53.325Z,8.83
2018-12-31T07:32:20.979Z,9.23
2018-12-31T07:34:48.858Z,9.60
2018-12-31T07:37:16.807Z,9.17
2018-12-31T07:39:44.407Z,9.37
2018-12-31T07:42:13.162Z,9.33
2018-12-31T07:44:42.542Z,9.30
2018-12-31T07:47:10.208Z,10.80
2018-12-31T07:49:40.066Z,10.40
2018-12-31T07:52:07.736Z,10.10
2018-12-31T07:54:38.650Z,8.90
2018-12-31T07:57:14.298Z,8.63
2018-12-31T07:59:53.315Z,9.30
2018-12-31T08:02:24.657Z,9.40
2018-12-31T08:04:52.314Z,8.73
2018-12-31T08:07:21.240Z,9.80
2018-12-31T08:09:48.841Z,8.93
2018-12-31T08:12:29.166Z,8.77
2018-12-31T08:14:57.892Z,9.67
2018-12-31T08:17:25.506Z,8.50
2018-12-31T08:20:00.718Z,8.93
2018-12-31T08:22:31.269Z,8.97
2018-12-31T08:25:01.831Z,9.73
2018-12-31T08:27:57.722Z,10.63
2018-12-31T08:30:26.407Z,11.80
2018-12-31T08:33:00.074Z,12.30
2018-12-31T08:35:31.966Z,11.53
2018-12-31T08:38:07.068Z,15.23
2018-12-31T08:40:34.602Z,14.87
2018-12-31T08:43:27.339Z,13.97
2018-12-31T08:45:55.055Z,12.73
2018-12-31T08:48:22.837Z,12.83
2018-12-31T08:50:53.776Z,12.23
2018-12-31T08:53:21.361Z,11.53
2018-12-31T08:55:49.174Z,10.93
2018-12-31T08:58:16.838Z,9.83
2018-12-31T09:00:44.685Z,11.20
2018-12-31T09:03:12.223Z,10.07
2018-12-31T09:05:40.109Z,10.10
2018-12-31T09:08:07.735Z,9.60
2018-12-31T09:10:38.274Z,10.10
2018-12-31T09:13:05.946Z,10.33
2018-12-31T09:15:33.667Z,9.53
2018-12-31T09:18:01.257Z,9.27
2018-12-31T09:20:29.382Z,9.43
2018-12-31T09:22:57.234Z,9.13
2018-12-31T09:25:24.787Z,8.70
2018-12-31T09:27:52.540Z,9.10
2018-12-31T09:30:23.153Z,12.10
2018-12-31T09:32:53.035Z,9.03
2018-12-31T09:35:20.774Z,8.70
2018-12-31T09:37:49.339Z,8.87
2018-12-31T09:40:16.981Z,8.87
2018-12-31T09:42:45.699Z,9.13
2018-12-31T09:45:13.335Z,9.47
2018-12-31T09:47:41.026Z,9.00
2018-12-31T09:50:08.814Z,10.07
2018-12-31T09:52:36.451Z,10.03
2018-12-31T09:55:04.726Z,8.77
2018-12-31T09:57:40.760Z,9.40
2018-12-31T10:00:14.002Z,8.83
2018-12-31T10:02:46.629Z,8.87
2018-12-31T10:05:14.497Z,9.13
2018-12-31T10:07:42.966Z,8.97
2018-12-31T10:10:10.610Z,9.00
2018-12-31T10:12:38.178Z,8.80
2018-12-31T10:15:06.892Z,9.53
2018-12-31T10:17:43.940Z,8.20
2018-12-31T10:20:13.553Z,8.13
2018-12-31T10:22:48.770Z,8.03
2018-12-31T10:25:16.790Z,8.50
2018-12-31T10:27:44.605Z,8.60
2018-12-31T10:30:12.430Z,8.60
2018-12-31T10:32:40.136Z,8.27
2018-12-31T10:35:07.710Z,9.40
2018-12-31T10:37:35.344Z,8.90
2018-12-31T10:40:03.238Z,8.93
2018-12-31T10:42:30.877Z,10.00
2018-12-31T10:45:02.165Z,8.93
2018-12-31T10:47:30.329Z,8.83
2018-12-31T10:49:58.180Z,9.00
2018-12-31T10:52:34.044Z,9.77
2018-12-31T10:55:04.978Z,11.37
2018-12-31T10:57:32.602Z,9.40
2018-12-31T11:00:02.012Z,9.57
2018-12-31T11:02:29.649Z,9.30
2018-12-31T11:04:57.611Z,9.10
2018-12-31T11:07:25.208Z,9.10
2018-12-31T11:09:56.164Z,9.07
2018-12-31T11:12:23.774Z,8.47
2018-12-31T11:14:51.762Z,9.43
2018-12-31T11:17:19.642Z,8.50
2018-12-31T11:19:47.247Z,8.90
2018-12-31T11:22:15.169Z,9.03
2018-12-31T11:24:45.154Z,11.50
2018-12-31T11:27:13.420Z,12.43
2018-12-31T11:29:43.698Z,9.80
2018-12-31T11:32:11.403Z,8.60
2018-12-31T11:34:39.178Z,8.93
2018-12-31T11:37:06.743Z,19.03
2018-12-31T11:39:34.510Z,9.63
2018-12-31T11:42:02.148Z,9.03
2018-12-31T11:44:30.233Z,8.60
2018-12-31T11:46:57.894Z,9.20
2018-12-31T11:49:28.246Z,9.13
2018-12-31T11:51:56.860Z,9.10
2018-12-31T11:54:24.597Z,9.27
2018-12-31T11:56:54.422Z,8.63
2018-12-31T11:59:23.307Z,8.13
2018-12-31T12:01:51.494Z,9.10
2018-12-31T12:04:19.422Z,8.70
2018-12-31T12:06:50.080Z,8.93
2018-12-31T12:09:18.097Z,9.30
2018-12-31T12:11:45.698Z,9.87
2018-12-31T12:14:13.585Z,8.87
2018-12-31T12:16:45.460Z,8.93
2018-12-31T12:19:13.253Z,8.63
2018-12-31T12:21:40.934Z,8.73
2018-12-31T12:24:08.881Z,8.60
2018-12-31T12:26:36.449Z,8.63
2018-12-31T12:29:07.235Z,8.97
2018-12-31T12:31:35.281Z,9.57
2018-12-31T12:34:02.885Z,9.50
2018-12-31T12:36:30.702Z,9.90
2018-12-31T12:38:58.583Z,8.40
2018-12-31T12:41:26.262Z,8.50
2018-12-31T12:43:54.126Z,9.20
2018-12-31T12:46:21.783Z,9.93
2018-12-31T12:48:51.174Z,10.03
2018-12-31T12:51:18.863Z,9.73
2018-12-31T12:53:46.818Z,8.37
2018-12-31T12:56:19.164Z,8.13
2018-12-31T12:58:51.538Z,8.93
2018-12-31T13:01:49.298Z,8.30
2018-12-31T13:03:52.755Z,7.03
2018-12-31T13:06:20.742Z,7.00
2018-12-31T13:08:53.223Z,6.30
2018-12-31T13:11:25.127Z,6.30
2018-12-31T13:13:53.033Z,6.43
2018-12-31T13:16:20.656Z,6.97
2018-12-31T13:18:48.273Z,7.20
2018-12-31T13:21:18.605Z,7.13
2018-12-31T13:23:46.214Z,7.47
2018-12-31T13:26:13.995Z,7.57
2018-12-31T13:28:41.869Z,7.67
2018-12-31T13:31:10.271Z,7.13
2018-12-31T13:33:37.841Z,9.63
2018-12-31T13:36:08.811Z,11.17
2018-12-31T13:38:36.364Z,7.57
2018-12-31T13:41:03.952Z,6.60
2018-12-31T13:43:33.561Z,6.30
2018-12-31T13:46:01.259Z,6.53
2018-12-31T13:48:28.854Z,6.37
2018-12-31T13:50:56.525Z,6.63
2018-12-31T13:53:24.260Z,6.97
2018-12-31T13:55:52.215Z,7.27
2018-12-31T13:58:20.087Z,7.67
2018-12-31T14:00:49.942Z,7.03
2018-12-31T14:03:19.647Z,6.90
2018-12-31T14:05:46.973Z,6.70
2018-12-31T14:08:14.514Z,6.60
2018-12-31T14:10:43.194Z,6.10
2018-12-31T14:13:11.278Z,6.07
2018-12-31T14:15:44.286Z,7.50
2018-12-31T14:18:12.028Z,7.37
2018-12-31T14:20:39.763Z,6.13
2018-12-31T14:23:07.549Z,7.00
2018-12-31T14:25:40.326Z,7.07
2018-12-31T14:28:07.955Z,5.70
2018-12-31T14:30:35.545Z,6.00
2018-12-31T14:33:05.574Z,7.90
2018-12-31T14:35:33.881Z,6.97
2018-12-31T14:38:01.469Z,7.67
2018-12-31T14:40:31.102Z,6.50
2018-12-31T14:42:59.448Z,5.63
2018-12-31T14:45:28.538Z,6.90
2018-12-31T14:48:08.874Z,8.63
2018-12-31T14:50:36.462Z,6.60
2018-12-31T14:53:04.105Z,6.67
2018-12-31T14:55:33.726Z,6.67
2018-12-31T14:58:01.491Z,7.20
2018-12-31T15:00:30.377Z,8.20
2018-12-31T15:03:01.425Z,5.57
2018-12-31T15:05:29.021Z,6.77
2018-12-31T15:07:56.750Z,8.57
2018-12-31T15:10:24.614Z,6.20
2018-12-31T15:12:52.364Z,15.37
2018-12-31T15:15:20.414Z,6.93
2018-12-31T15:17:48.191Z,7.40
2018-12-31T15:20:15.825Z,7.50
2018-12-31T15:22:43.490Z,6.60
2018-12-31T15:25:14.219Z,6.43
2018-12-31T15:27:51.095Z,6.17
2018-12-31T15:30:19.065Z,6.37
2018-12-31T15:32:47.061Z,6.13
2018-12-31T15:35:15.078Z,7.70
2018-12-31T15:37:46.119Z,6.20
2018-12-31T15:40:16.672Z,6.73
2018-12-31T15:42:47.309Z,6.63
2018-12-31T15:45:17.522Z,10.17
2018-12-31T15:47:48.189Z,7.13
2018-12-31T15:50:16.323Z,10.30
2018-12-31T15:52:44.431Z,18.33
2018-12-31T15:55:16.689Z,10.40
2018-12-31T15:57:44.835Z,26.37
2018-12-31T16:00:34.622Z,21.70
2018-12-31T16:03:08.871Z,19.70
2018-12-31T16:05:36.663Z,13.00
2018-12-31T16:08:07.312Z,10.07
2018-12-31T16:10:35.032Z,9.40
2018-12-31T16:13:02.614Z,7.90
2018-12-31T16:15:30.416Z,8.07
2018-12-31T16:17:58.070Z,8.13
2018-12-31T16:20:25.925Z,8.50
2018-12-31T16:22:53.806Z,8.10
2018-12-31T16:25:21.435Z,8.70
2018-12-31T16:27:49.025Z,8.57
2018-12-31T16:30:16.629Z,9.23
2018-12-31T16:32:59.174Z,12.47
2018-12-31T16:35:26.931Z,15.57
2018-12-31T16:37:54.609Z,11.70
2018-12-31T16:40:25.969Z,10.17
2018-12-31T16:42:53.732Z,11.70
2018-12-31T16:45:24.477Z,11.97
2018-12-31T16:47:52.439Z,24.53
2018-12-31T16:50:20.276Z,15.17
2018-12-31T16:52:48.098Z,11.57
2018-12-31T16:55:16.335Z,14.00
2018-12-31T16:57:46.214Z,11.10
2018-12-31T17:00:16.642Z,10.83
2018-12-31T17:02:46.993Z,11.00
2018-12-31T17:05:14.591Z,12.70
2018-12-31T17:07:44.432Z,13.77
2018-12-31T17:10:20.385Z,13.10
2018-12-31T17:12:50.424Z,14.60
2018-12-31T17:15:17.991Z,14.50
2018-12-31T17:17:47.106Z,13.83
2018-12-31T17:20:14.729Z,14.43
2018-12-31T17:22:44.522Z,15.03
2018-12-31T17:25:13.777Z,13.93
2018-12-31T17:27:43.284Z,14.87
2018-12-31T17:30:14.629Z,13.37
2018-12-31T17:32:42.314Z,14.20
2018-12-31T17:35:09.963Z,14.70
2018-12-31T17:37:39.798Z,14.60
2018-12-31T17:40:07.647Z,15.67
2018-12-31T17:42:37.689Z,17.30
2018-12-31T17:45:23.069Z,19.30
2018-12-31T17:47:46.609Z,19.97
2018-12-31T17:50:16.989Z,16.90
2018-12-31T17:52:45.155Z,24.17
2018-12-31T17:55:13.949Z,16.87
2018-12-31T17:57:41.846Z,18.10
2018-12-31T18:00:10.273Z,15.27
2018-12-31T18:02:39.033Z,15.83
2018-12-31T18:05:06.814Z,15.63
2018-12-31T18:07:34.516Z,15.20
2018-12-31T18:10:06.853Z,71.17
2018-12-31T18:12:34.710Z,22.93
2018-12-31T18:15:03.945Z,18.00
2018-12-31T18:17:31.717Z,21.80
2018-12-31T18:19:59.362Z,19.00
2018-12-31T18:22:36.217Z,17.53
2018-12-31T18:25:03.867Z,16.60
2018-12-31T18:27:31.670Z,16.30
2018-12-31T18:29:59.571Z,17.97
2018-12-31T18:32:27.317Z,17.17
2018-12-31T18:34:55.429Z,17.17
2018-12-31T18:37:28.301Z,17.40
2018-12-31T18:39:58.490Z,17.90
2018-12-31T18:42:26.373Z,18.37
2018-12-31T18:44:55.581Z,20.63
2018-12-31T18:47:27.305Z,18.47
2018-12-31T18:49:55.893Z,18.47
2018-12-31T18:52:23.506Z,18.47
2018-12-31T18:55:10.958Z,16.30
2018-12-31T18:57:38.659Z,15.87
2018-12-31T19:00:07.265Z,15.93
2018-12-31T19:02:44.982Z,15.63
2018-12-31T19:05:15.338Z,15.80
2018-12-31T19:07:42.921Z,15.53
2018-12-31T19:10:14.734Z,16.20
2018-12-31T19:12:42.303Z,16.40
2018-12-31T19:15:11.035Z,16.27
2018-12-31T19:17:38.970Z,15.53
2018-12-31T19:20:09.786Z,15.57
2018-12-31T19:22:37.655Z,16.43
2018-12-31T19:25:11.404Z,17.37
2018-12-31T19:27:39.397Z,17.27
2018-12-31T19:30:07.532Z,17.83
2018-12-31T19:32:38.407Z,17.30
2018-12-31T19:35:06.157Z,16.43
2018-12-31T19:37:34.451Z,16.23
2018-12-31T19:40:03.766Z,16.90
2018-12-31T19:42:31.353Z,15.43
2018-12-31T19:44:59.083Z,15.50
2018-12-31T19:47:28.591Z,15.63
2018-12-31T19:49:57.964Z,18.43
2018-12-31T19:52:26.728Z,25.60
2018-12-31T19:54:58.494Z,25.83
2018-12-31T19:57:27.734Z,28.07
2018-12-31T19:59:56.379Z,22.63
2018-12-31T20:02:24.237Z,22.87
2018-12-31T20:04:56.018Z,21.73
2018-12-31T20:07:23.587Z,21.03
2018-12-31T20:09:54.232Z,23.23
2018-12-31T20:12:27.080Z,21.93
2018-12-31T20:14:54.970Z,22.30
2018-12-31T20:17:23.325Z,22.60
2018-12-31T20:19:54.240Z,20.90
2018-12-31T20:22:22.149Z,20.80
2018-12-31T20:24:53.526Z,19.70
2018-12-31T20:27:26.148Z,20.60
2018-12-31T20:29:54.074Z,19.33
2018-12-31T20:32:23.247Z,19.83
2018-12-31T20:34:53.612Z,19.33
2018-12-31T20:37:21.396Z,18.50
2018-12-31T20:39:50.071Z,19.07
2018-12-31T20:42:17.767Z,18.37
2018-12-31T20:44:45.749Z,18.00
2018-12-31T20:47:13.974Z,18.00
2018-12-31T20:49:42.011Z,17.70
2018-12-31T20:52:12.376Z,18.20
2018-12-31T20:54:41.846Z,17.30
2018-12-31T20:57:10.362Z,19.03
2018-12-31T20:59:38.067Z,19.33
2018-12-31T21:02:12.167Z,19.47
2018-12-31T21:04:40.381Z,21.03
2018-12-31T21:07:08.491Z,21.27
2018-12-31T21:09:36.205Z,22.20
2018-12-31T21:12:04.070Z,23.77
2018-12-31T21:14:35.116Z,24.27
2018-12-31T21:17:05.606Z,23.80
2018-12-31T21:19:33.553Z,21.17
2018-12-31T21:22:01.825Z,20.57
2018-12-31T21:24:31.249Z,21.07
2018-12-31T21:26:58.929Z,20.13
2018-12-31T21:29:27.528Z,19.93
2018-12-31T21:31:55.373Z,17.73
2018-12-31T21:34:27.922Z,18.93
2018-12-31T21:36:55.820Z,16.67
2018-12-31T21:39:23.596Z,17.47
2018-12-31T21:41:51.187Z,17.10
2018-12-31T21:44:26.573Z,18.57
2018-12-31T21:46:54.269Z,16.00
2018-12-31T21:49:22.310Z,16.37
2018-12-31T21:51:50.137Z,16.90
2018-12-31T21:54:18.003Z,18.37
2018-12-31T21:56:45.570Z,17.37
2018-12-31T21:59:13.663Z,18.13
2018-12-31T22:01:41.378Z,15.77
2018-12-31T22:04:09.203Z,16.40
2018-12-31T22:06:37.117Z,17.07
2018-12-31T22:09:06.588Z,18.07
2018-12-31T22:11:40.294Z,19.20
2018-12-31T22:14:08.062Z,17.53
2018-12-31T22:16:40.568Z,16.57
2018-12-31T22:19:08.155Z,18.27
2018-12-31T22:21:37.657Z,16.93
2018-12-31T22:24:08.230Z,14.70
2018-12-31T22:26:35.982Z,16.60
2018-12-31T22:29:03.822Z,17.03
2018-12-31T22:31:36.806Z,23.77
2018-12-31T22:34:06.495Z,19.80
2018-12-31T22:36:34.107Z,20.87
2018-12-31T22:39:01.827Z,19.03
2018-12-31T22:41:29.418Z,27.43
2018-12-31T22:44:00.637Z,44.10
2018-12-31T22:46:36.946Z,32.83
2018-12-31T22:49:06.483Z,33.80
2018-12-31T22:51:34.827Z,39.27
2018-12-31T22:54:04.479Z,33.50
2018-12-31T22:56:32.613Z,36.73
2018-12-31T22:59:01.259Z,30.67
2018-12-31T23:01:34.198Z,44.47
2018-12-31T23:04:01.977Z,714.93
2018-12-31T23:06:29.583Z,594.90
2018-12-31T23:08:59.942Z,549.80
2018-12-31T23:11:29.739Z,397.10
2018-12-31T23:13:59.779Z,87.73
2018-12-31T23:16:28.050Z,137.87
2018-12-31T23:18:55.608Z,210.63
2018-12-31T23:21:30.110Z,335.10
2018-12-31T23:23:57.898Z,569.03
2018-12-31T23:26:25.649Z,252.43
2018-12-31T23:28:55.089Z,158.93
2018-12-31T23:31:31.390Z,589.17
2018-12-31T23:34:04.732Z,332.23
2018-12-31T23:36:32.980Z,383.93
2018-12-31T23:39:05.210Z,479.63
2018-12-31T23:41:30.350Z,401.47
2018-12-31T23:43:58.258Z,398.70
2018-12-31T23:46:26.647Z,367.70
2018-12-31T23:48:54.589Z,362.13
2018-12-31T23:51:25.742Z,363.67
2018-12-31T23:53:53.944Z,347.60
2018-12-31T23:56:21.782Z,371.20
2018-12-31T23:58:54.965Z,335.33
